Terminal Aerodrome Forecast
Issued by NWS

Home | Current Version | Previous Version | Text Only | Print | Product List | Glossary On
Versions: 1 2 3 4 5 6 7 8 9 10 11 12 13 14 15
000
FTUS46 KLOX 301728
TAFSBP
TAF
KSBP 301728Z 3018/0118 28006KT P6SM SCT006
     FM301830 31008KT P6SM SKC
     FM302100 32015KT P6SM SKC
     FM010200 32008KT P6SM SKC
     FM011000 VRB03KT 1SM BR BKN002
     FM011300 32010KT 6SM HZ SCT002=

USA.gov is the U.S. government's official web portal to all federal, state and local government web resources and services.